Time;durP1;ratioP1;P1;durP2;ratioP2;P2;SDS_P1;SDS_P2;PMS_P1;PMS_P2;Temp;Humidity;BMP_temperature;BMP_pressure;BME280_temperature;BME280_humidity;BME280_pressure;Samples;Min_cycle;Max_cycle;Signal;HPM_P1;HPM_P2
2021/10/07 00:05:11;;;;;;;27.67;17.67;;;;;;;12.05;100.00;101324.59;712905;1206;115167;-76
2021/10/07 00:20:15;;;;;;;21.40;10.50;;;;;;;11.92;100.00;101319.44;712725;1177;114691;-76
2021/10/07 00:35:40;;;;;;;21.33;10.80;;;;;;;11.93;100.00;101327.20;712592;1203;114952;-77
2021/10/07 00:50:42;;;;;;;20.13;11.30;;;;;;;11.83;100.00;101345.45;712755;1179;114087;-78
2021/10/07 01:05:45;;;;;;;16.70;11.40;;;;;;;11.78;100.00;101352.86;712641;1203;115626;-77
2021/10/07 01:20:47;;;;;;;23.65;11.65;;;;;;;11.63;100.00;101360.13;712688;1202;114553;-78
2021/10/07 01:35:49;;;;;;;17.93;11.38;;;;;;;11.53;100.00;101360.94;712584;1202;114508;-77
2021/10/07 01:50:51;;;;;;;24.05;12.30;;;;;;;11.42;100.00;101359.13;712279;1202;114579;-77
2021/10/07 02:05:53;;;;;;;22.60;12.43;;;;;;;11.38;100.00;101378.70;712633;1184;114803;-77
2021/10/07 02:20:56;;;;;;;18.30;11.67;;;;;;;11.33;100.00;101400.03;712579;1202;115926;-77
2021/10/07 02:35:58;;;;;;;18.45;10.60;;;;;;;11.21;100.00;101411.45;712933;1203;115234;-77
2021/10/07 02:51:00;;;;;;;15.28;10.23;;;;;;;11.21;100.00;101414.08;712667;1181;114536;-78
2021/10/07 03:06:02;;;;;;;17.53;9.90;;;;;;;11.18;100.00;101430.90;712741;1203;115401;-80
2021/10/07 03:21:05;;;;;;;14.80;9.45;;;;;;;11.13;100.00;101436.47;712911;1202;114756;-76
2021/10/07 03:36:06;;;;;;;17.70;9.48;;;;;;;11.03;100.00;101443.33;713855;1180;114481;-74
2021/10/07 03:51:09;;;;;;;18.63;9.33;;;;;;;10.96;100.00;101463.11;712692;1202;114819;-74
2021/10/07 04:06:11;;;;;;;14.60;8.48;;;;;;;10.97;100.00;101483.99;712730;1202;115575;-74
2021/10/07 04:21:13;;;;;;;13.05;8.90;;;;;;;10.88;100.00;101500.40;712555;1203;114673;-74
2021/10/07 04:36:15;;;;;;;15.70;8.40;;;;;;;10.79;100.00;101504.49;713084;1202;115672;-74
2021/10/07 04:51:17;;;;;;;16.35;10.13;;;;;;;10.88;100.00;101525.82;712739;1202;114780;-74
2021/10/07 05:06:20;;;;;;;22.18;10.10;;;;;;;10.81;100.00;101552.48;712596;1202;115349;-74
2021/10/07 05:21:23;;;;;;;15.17;9.27;;;;;;;10.76;100.00;101572.13;712677;1208;115917;-74
2021/10/07 05:36:25;;;;;;;14.85;8.55;;;;;;;10.62;100.00;101573.91;712479;1202;115712;-76
2021/10/07 05:51:27;;;;;;;19.93;10.03;;;;;;;10.56;100.00;101594.48;712432;1203;114763;-76
2021/10/07 06:06:29;;;;;;;26.38;15.63;;;;;;;10.68;100.00;101608.53;712458;1203;115685;-76
2021/10/07 06:21:32;;;;;;;17.80;10.60;;;;;;;10.75;100.00;101625.56;712748;1202;115125;-75
2021/10/07 06:36:36;;;;;;;22.85;9.60;;;;;;;10.77;100.00;101644.69;712641;1202;116106;-80
2021/10/07 06:51:38;;;;;;;43.33;16.03;;;;;;;10.76;100.00;101653.50;712855;1202;115366;-75
2021/10/07 07:06:40;;;;;;;40.30;20.57;;;;;;;10.81;100.00;101670.61;712680;1202;115768;-81
2021/10/07 07:21:42;;;;;;;48.30;21.13;;;;;;;10.94;100.00;101677.65;712851;1202;114815;-79
2021/10/07 07:36:45;;;;;;;29.20;15.50;;;;;;;11.39;100.00;101693.86;712569;1203;114524;-80
2021/10/07 07:51:47;;;;;;;25.27;15.40;;;;;;;11.47;100.00;101691.53;712815;1202;115209;-80
2021/10/07 08:06:50;;;;;;;18.60;11.85;;;;;;;11.53;97.80;101706.02;712842;1202;114909;-84
2021/10/07 08:21:52;;;;;;;17.35;10.95;;;;;;;11.80;96.65;101729.55;712662;1205;115465;-79
2021/10/07 08:36:54;;;;;;;18.05;10.35;;;;;;;12.10;94.70;101751.17;713217;1203;115463;-83
2021/10/07 08:51:56;;;;;;;15.13;9.98;;;;;;;11.95;92.63;101755.74;713299;1203;114462;-83
2021/10/07 09:07:06;;;;;;;24.10;12.40;;;;;;;11.72;90.88;101752.05;712653;1206;114942;-83
2021/10/07 09:22:16;;;;;;;14.48;9.25;;;;;;;11.95;91.79;101761.83;713065;1203;115052;-84
2021/10/07 09:37:21;;;;;;;17.53;10.93;;;;;;;12.17;90.45;101767.36;712711;1205;114828;-83
2021/10/07 09:52:24;;;;;;;16.80;9.10;;;;;;;12.58;89.78;101772.27;715260;1179;114411;-84
2021/10/07 10:07:26;;;;;;;39.87;17.30;;;;;;;12.94;86.23;101769.67;715455;1178;114629;-81
2021/10/07 10:22:30;;;;;;;23.30;13.30;;;;;;;13.11;83.59;101758.70;713046;1202;114372;-83
2021/10/07 10:37:33;;;;;;;23.50;11.33;;;;;;;14.10;83.87;101776.66;712541;1202;115578;-85
2021/10/07 10:52:42;;;;;;;21.80;11.50;;;;;;;14.78;79.85;101779.98;714372;1180;114346;-78
2021/10/07 11:07:44;;;;;;;;;;;;;;;15.67;75.69;101783.20;713101;1181;114344;-78
2021/10/07 11:23:15;;;;;;;16.55;10.10;;;;;;;15.70;74.50;101789.05;713084;1202;101163;-77
2021/10/07 11:38:18;;;;;;;18.70;9.30;;;;;;;15.53;75.01;101779.09;713287;1179;114359;-78
2021/10/07 11:53:37;;;;;;;14.95;9.30;;;;;;;16.76;74.27;101770.93;713856;1202;114891;-77
2021/10/07 12:08:42;;;;;;;12.53;8.77;;;;;;;18.17;72.13;101778.23;716044;1203;114953;-77
2021/10/07 12:23:49;;;;;;;14.73;8.63;;;;;;;18.34;66.87;101788.05;713603;1203;114238;-77
2021/10/07 12:38:54;;;;;;;15.63;8.23;;;;;;;19.40;66.81;101781.13;713289;1206;115492;-78
2021/10/07 12:53:56;;;;;;;16.63;9.03;;;;;;;18.86;65.64;101775.91;713024;1205;114283;-77
2021/10/07 13:08:59;;;;;;;16.73;8.63;;;;;;;18.39;66.88;101787.61;713086;1202;115071;-77
2021/10/07 13:24:04;;;;;;;13.45;8.85;;;;;;;23.89;61.59;101786.47;713437;1202;115770;-83
2021/10/07 13:39:06;;;;;;;16.48;8.28;;;;;;;27.82;54.85;101802.88;713626;1202;115177;-84
2021/10/07 13:54:09;;;;;;;12.60;6.63;;;;;;;29.98;51.33;101806.27;713044;1203;114457;-85
2021/10/07 14:09:11;;;;;;;9.87;6.43;;;;;;;29.97;48.97;101812.76;713498;1202;114537;-86
2021/10/07 14:24:14;;;;;;;14.10;6.15;;;;;;;29.75;48.40;101817.78;713500;1203;113974;-86
2021/10/07 14:39:17;;;;;;;12.70;7.13;;;;;;;29.75;48.04;101830.46;713253;1202;114172;-86
2021/10/07 14:54:20;;;;;;;13.23;6.10;;;;;;;27.81;48.52;101835.44;713303;1202;114657;-85
2021/10/07 15:09:22;;;;;;;15.13;9.98;;;;;;;23.28;51.81;101833.99;713260;1202;115537;-85
2021/10/07 15:24:25;;;;;;;36.05;19.33;;;;;;;22.43;54.93;101839.30;713167;1202;115064;-86
2021/10/07 15:39:27;;;;;;;125.83;57.15;;;;;;;22.86;54.38;101858.40;713343;1203;115019;-84
2021/10/07 15:54:29;;;;;;;67.45;41.30;;;;;;;19.73;57.52;101853.19;713008;1203;114969;-78
2021/10/07 16:09:32;;;;;;;101.10;60.35;;;;;;;17.80;60.77;101889.59;713130;1203;115021;-78
2021/10/07 16:24:34;;;;;;;96.20;47.00;;;;;;;16.56;63.59;101896.39;713151;1202;115318;-76
2021/10/07 16:39:38;;;;;;;73.20;36.80;;;;;;;16.01;65.08;101924.06;713827;1180;117329;-91
2021/10/07 16:54:40;;;;;;;57.85;28.75;;;;;;;15.55;65.89;101951.72;713033;1180;114454;-80
2021/10/07 17:09:46;;;;;;;43.50;20.03;;;;;;;15.01;66.78;101970.15;713410;1179;115136;-79
2021/10/07 17:24:49;;;;;;;51.60;24.27;;;;;;;14.68;67.02;101977.16;713464;1204;114380;-78
2021/10/07 17:39:52;;;;;;;36.73;16.98;;;;;;;14.31;67.90;101991.39;712993;1180;114463;-80
2021/10/07 17:54:54;;;;;;;27.47;16.07;;;;;;;13.78;69.12;101997.14;712746;1187;115141;-81
2021/10/07 18:09:57;;;;;;;24.00;13.37;;;;;;;13.43;71.06;102002.38;713333;1202;115059;-80
2021/10/07 18:24:59;;;;;;;23.20;9.80;;;;;;;12.93;70.51;102012.94;712910;1203;115369;-78
2021/10/07 18:40:05;;;;;;;16.83;8.55;;;;;;;12.56;71.41;102026.88;716039;1178;114706;-78
2021/10/07 18:55:09;;;;;;;20.95;11.10;;;;;;;12.22;72.20;102038.86;713817;1180;114161;-79
2021/10/07 19:10:12;;;;;;;42.33;13.15;;;;;;;11.81;72.56;102041.48;714170;1186;115172;-78
2021/10/07 19:25:15;;;;;;;24.40;8.80;;;;;;;11.38;73.18;102046.88;713316;1203;114808;-78
2021/10/07 19:40:20;;;;;;;27.10;12.90;;;;;;;11.07;73.80;102046.20;713496;1202;114584;-76
2021/10/07 19:55:23;;;;;;;20.80;9.17;;;;;;;10.87;74.46;102046.58;713111;1203;115825;-76
2021/10/07 20:10:26;;;;;;;23.53;10.67;;;;;;;10.55;74.65;102044.13;713631;1181;113578;-76
2021/10/07 20:25:31;;;;;;;49.17;21.77;;;;;;;10.16;77.02;102064.70;713114;1203;114820;-76
2021/10/07 20:40:34;;;;;;;25.60;9.73;;;;;;;9.93;77.02;102069.50;714408;1203;113665;-76
2021/10/07 20:55:37;;;;;;;20.50;8.48;;;;;;;9.55;76.86;102069.04;712810;1202;115052;-77
2021/10/07 21:10:39;;;;;;;18.97;8.57;;;;;;;9.15;77.77;102078.13;712862;1202;114271;-76
2021/10/07 21:25:41;;;;;;;25.30;12.00;;;;;;;8.88;78.76;102069.98;712719;1203;114365;-76
2021/10/07 21:40:43;;;;;;;22.98;9.28;;;;;;;8.71;80.63;102077.84;712770;1203;114045;-77
2021/10/07 21:55:46;;;;;;;24.95;9.80;;;;;;;8.40;80.91;102085.46;712573;1203;114185;-78
2021/10/07 22:10:48;;;;;;;27.25;14.00;;;;;;;8.23;81.58;102093.30;712741;1203;114019;-77
2021/10/07 22:25:50;;;;;;;24.05;11.55;;;;;;;8.07;82.90;102103.67;712804;1203;114127;-76
2021/10/07 22:40:52;;;;;;;20.43;11.78;;;;;;;8.02;82.61;102119.56;712732;1202;114034;-77
2021/10/07 22:55:55;;;;;;;21.73;10.30;;;;;;;7.88;84.20;102121.98;712890;1182;114378;-76
2021/10/07 23:10:57;;;;;;;26.65;14.30;;;;;;;7.77;83.62;102128.59;713650;1203;114605;-76
2021/10/07 23:25:59;;;;;;;30.00;13.88;;;;;;;7.57;83.38;102137.33;712674;1202;114392;-76
2021/10/07 23:41:01;;;;;;;27.48;14.23;;;;;;;7.47;84.07;102136.08;713527;1203;115293;-76
2021/10/07 23:56:03;;;;;;;22.35;10.10;;;;;;;7.33;83.87;102136.69;712630;1203;114471;-76
